Newhall, IA

6:08 PM CDT on September 20, 2014 (GMT -0500)
Vinton-Veterans Memorial | Change Station
CLOSE
Current Station
Airport
Location: Vinton,
Elevation: 846 ft
Nearby Weather Stations

Elev 846 ft 42.22 °N, 92.03 °W | Updated 13 minutes ago

Clear
Clear
81 °F
Feels Like 81 °F
N
9
Wind Variable Wind from WNW

Today
High -- | Low -- °F
--% Chance of Precip.
Yesterday
High -- | Low -- °F
Precip. -- in
6:53 AM 7:08 PM
Waning Crescent, 10% visible
Pressure 29.80 in
Visibility 10.0 miles
Clouds Clear
Heat Index 81 °F
Dew Point 56 °F
Humidity 43%
Rainfall 0.14 in
Snow Depth Not available.
UV 1 out of 12
Pollen 4.60 out of 12
Air Quality Not available.
Flu Activity Not available.
METAR KVTI 202255Z AUTO 29008KT 10SM CLR 27/14 A2980 RMK AO2 T02700135

More Conditions Fewer Conditions

Pressure 29.80 in
Visibility 10.0 miles
Clouds Clear
Heat Index 81 °F
Dew Point 56 °F
Humidity 43%
Rainfall 0.14 in
Snow Depth Not available.
UV 1 out of 12
Pollen 4.60 out of 12
Air Quality Not available.
Flu Activity Not available.
METAR KVTI 202255Z AUTO 29008KT 10SM CLR 27/14 A2980 RMK AO2 T02700135

More Conditions Fewer Conditions

10-Day Weather Forecast

Almanac

Astronomy

Sep. 20, 2014 Rise Set
Actual Time 6:53 AM CDT 7:08 PM CDT
Civil Twilight 6:25 AM CDT 7:36 PM CDT
Nautical Twilight 5:52 AM CDT 8:09 PM CDT
Astronomical Twilight 5:18 AM CDT 8:42 PM CDT
Moon 3:30 AM CDT 5:14 PM CDT
Length of Visible Light 13h 11m
Length of Day
12h 15m
Tomorrow will be 2m 48s shorter.
Waning Crescent, 10% of the Moon is Illuminated
Today
Waning Crescent
Sep 24
New
Oct 1
First Quarter
Oct 8
Full
Oct 15
Last Quarter

Today's Extremes

State Highs State Lows

Community

WunderPhotos

Upload Photos

1,754,972 photos uploaded!

WunderBlogs® & News

Nearby

Snow Depth

Station Depth Elevation
No new snow has been reported.

Earthquake Activity

City Distance Mag. Time & Date
No recent earthquake activity has been reported nearby.
Minimum magnitude displayed is 2.5.

Coastal Water Temperatures

Place Temperature
No Stations Reporting

Nearby Weather Stations